Time;durP1;ratioP1;P1;durP2;ratioP2;P2;SDS_P1;SDS_P2;PMS_P1;PMS_P2;Temp;Humidity;BMP_temperature;BMP_pressure;BME280_temperature;BME280_humidity;BME280_pressure;Samples;Min_cycle;Max_cycle;Signal;HPM_P1;HPM_P2
2023/08/02 00:00:28;;;;;;;5.03;4.32;;;;;;;23.48;55.15;100181.94;5029565;28;20395;-75
2023/08/02 00:02:54;;;;;;;6.00;4.87;;;;;;;23.52;54.86;100168.69;5014348;28;20744;-75
2023/08/02 00:05:19;;;;;;;4.87;4.30;;;;;;;23.50;54.79;100183.53;5013791;28;20380;-75
2023/08/02 00:07:45;;;;;;;5.30;4.80;;;;;;;23.44;54.99;100175.44;5014096;28;20404;-75
2023/08/02 00:10:10;;;;;;;7.93;4.77;;;;;;;23.45;55.04;100168.94;5007671;28;20400;-75
2023/08/02 00:12:36;;;;;;;6.03;4.87;;;;;;;23.39;55.05;100177.31;5003454;28;20549;-75
2023/08/02 00:15:01;;;;;;;5.80;4.95;;;;;;;23.32;55.41;100174.03;5001881;28;20481;-75
2023/08/02 00:17:27;;;;;;;5.23;4.37;;;;;;;23.28;55.25;100168.34;5005298;28;20837;-75
2023/08/02 00:19:52;;;;;;;6.70;4.37;;;;;;;23.30;55.57;100168.94;5012091;28;21079;-75
2023/08/02 00:22:17;;;;;;;5.05;4.55;;;;;;;23.40;54.93;100174.34;5010729;28;20376;-75
2023/08/02 00:24:43;;;;;;;4.83;4.33;;;;;;;23.25;55.28;100175.13;5010800;28;20419;-75
2023/08/02 00:27:08;;;;;;;6.63;4.33;;;;;;;23.29;55.33;100189.72;5010957;28;20735;-75
2023/08/02 00:29:34;;;;;;;5.07;4.57;;;;;;;23.30;55.37;100179.75;5011951;28;20412;-75
2023/08/02 00:31:59;;;;;;;5.88;4.50;;;;;;;23.38;55.09;100190.03;5012895;28;20426;-75
2023/08/02 00:34:26;;;;;;;5.27;4.60;;;;;;;23.43;54.98;100187.34;5012504;28;20450;-75
2023/08/02 00:36:52;;;;;;;6.80;4.35;;;;;;;23.42;54.87;100188.41;5013327;28;20784;-75
2023/08/02 00:39:18;;;;;;;5.77;4.53;;;;;;;23.39;54.72;100180.00;5013012;28;20387;-75
2023/08/02 00:41:43;;;;;;;6.13;4.55;;;;;;;23.39;54.89;100182.72;5013118;28;20729;-75
2023/08/02 00:44:09;;;;;;;4.63;4.22;;;;;;;23.38;55.15;100184.63;5013002;28;20833;-75
2023/08/02 00:46:34;;;;;;;8.00;4.80;;;;;;;23.33;55.25;100179.19;5012605;28;20744;-75
2023/08/02 00:49:00;;;;;;;7.40;5.10;;;;;;;23.34;55.06;100188.13;5012978;28;20372;-75
2023/08/02 00:51:30;;;;;;;5.53;4.75;;;;;;;23.33;55.23;100191.91;5012938;28;20439;-75
2023/08/02 00:53:56;;;;;;;7.30;5.17;;;;;;;23.25;55.50;100190.56;5012803;28;20849;-75
2023/08/02 00:56:22;;;;;;;7.75;4.85;;;;;;;23.28;55.51;100190.81;5012729;28;20450;-75
2023/08/02 00:58:47;;;;;;;6.77;5.13;;;;;;;23.35;55.64;100185.13;5011719;28;20776;-75
2023/08/02 01:01:13;;;;;;;6.80;5.37;;;;;;;23.36;55.41;100185.97;5012377;28;20376;-75
2023/08/02 01:03:45;;;;;;;8.45;5.57;;;;;;;23.34;55.68;100196.25;5012677;28;20395;-75
2023/08/02 01:06:11;;;;;;;6.03;5.43;;;;;;;23.22;56.45;100193.78;5012447;28;21601;-75
2023/08/02 01:08:40;;;;;;;10.18;5.68;;;;;;;23.18;56.46;100192.69;5012594;28;20380;-75
2023/08/02 01:11:22;;;;;;;7.82;5.50;;;;;;;23.16;56.47;100195.66;5012490;28;20479;-75
2023/08/02 01:13:51;;;;;;;6.72;5.55;;;;;;;23.18;56.41;100195.41;5012491;28;20384;-75
2023/08/02 01:16:19;;;;;;;7.80;5.97;;;;;;;23.19;56.56;100189.72;5012186;28;20460;-75
2023/08/02 01:18:44;;;;;;;9.43;5.88;;;;;;;23.23;56.09;100190.81;5012441;28;20441;-75
2023/08/02 01:21:10;;;;;;;8.13;5.90;;;;;;;23.26;56.26;100190.28;5012155;28;20751;-75
2023/08/02 01:23:36;;;;;;;6.82;5.63;;;;;;;23.25;56.53;100190.56;5011364;28;20454;-75
2023/08/02 01:26:04;;;;;;;7.23;5.67;;;;;;;23.22;56.30;100188.38;5012244;28;20865;-75
2023/08/02 01:28:42;;;;;;;6.10;5.50;;;;;;;23.23;56.74;100192.72;5012192;28;20384;-75
2023/08/02 01:31:10;;;;;;;12.47;5.80;;;;;;;23.23;56.56;100196.22;5011825;28;20557;-76
2023/08/02 01:33:47;;;;;;;6.57;5.63;;;;;;;23.17;56.58;100193.75;5012086;28;20486;-75
2023/08/02 01:36:12;;;;;;;8.00;5.78;;;;;;;23.13;56.62;100193.47;5011987;28;20384;-76
2023/08/02 01:38:38;;;;;;;6.22;5.30;;;;;;;23.11;56.97;100192.94;5012091;28;20426;-76
2023/08/02 01:41:03;;;;;;;8.10;5.57;;;;;;;23.21;56.62;100201.09;5011785;28;20396;-75
2023/08/02 01:43:29;;;;;;;7.18;5.85;;;;;;;23.27;56.55;100191.09;5011356;28;20476;-76
2023/08/02 01:45:54;;;;;;;7.63;5.50;;;;;;;23.34;56.29;100188.13;5012219;28;20817;-76
2023/08/02 01:48:20;;;;;;;7.10;5.53;;;;;;;23.42;55.83;100190.31;5012031;28;20465;-76
2023/08/02 01:50:45;;;;;;;5.97;5.33;;;;;;;23.44;55.58;100190.84;5011755;28;20424;-75
2023/08/02 01:53:10;;;;;;;5.70;5.10;;;;;;;23.50;55.56;100187.06;5011762;28;20494;-75
2023/08/02 01:55:36;;;;;;;8.07;5.70;;;;;;;23.53;55.43;100183.00;5011708;28;20450;-75
2023/08/02 01:58:02;;;;;;;7.90;5.20;;;;;;;23.54;55.43;100190.84;5011911;28;20756;-75
2023/08/02 02:00:27;;;;;;;7.63;5.18;;;;;;;23.55;55.50;100191.66;5011370;28;20384;-76
2023/08/02 02:02:53;;;;;;;7.22;5.43;;;;;;;23.53;55.46;100197.34;5012897;28;20390;-75
2023/08/02 02:05:18;;;;;;;9.53;5.33;;;;;;;23.48;55.46;100197.34;5011527;28;20384;-76
2023/08/02 02:07:44;;;;;;;5.83;5.23;;;;;;;23.40;55.71;100200.59;5011658;28;20391;-75
2023/08/02 02:10:09;;;;;;;5.65;5.15;;;;;;;23.40;55.61;100201.38;5010774;28;20387;-76
2023/08/02 02:12:35;;;;;;;6.00;5.40;;;;;;;23.52;55.66;100206.56;4999983;28;20414;-75
2023/08/02 02:15:00;;;;;;;6.40;5.60;;;;;;;23.65;55.20;100208.72;5004033;28;20430;-75
2023/08/02 02:17:26;;;;;;;6.70;5.40;;;;;;;23.69;54.96;100208.19;4992992;28;20909;-75
2023/08/02 02:19:51;;;;;;;6.30;5.10;;;;;;;23.69;55.01;100208.19;5011285;28;20388;-76
2023/08/02 02:22:16;;;;;;;7.33;5.20;;;;;;;23.64;55.10;100207.13;5010671;28;20368;-76
2023/08/02 02:24:42;;;;;;;6.13;4.97;;;;;;;23.62;55.24;100201.16;5002139;28;20455;-75
2023/08/02 02:27:07;;;;;;;6.07;4.97;;;;;;;23.71;55.10;100198.72;5010988;28;20383;-76
2023/08/02 02:29:33;;;;;;;6.70;5.53;;;;;;;23.76;54.48;100203.31;5010474;28;20502;-75
2023/08/02 02:31:58;;;;;;;6.23;5.27;;;;;;;23.78;54.38;100217.38;5005231;28;20890;-76
2023/08/02 02:34:24;;;;;;;8.00;5.80;;;;;;;23.71;54.70;100224.97;4990518;28;20409;-76
2023/08/02 02:36:49;;;;;;;7.28;5.70;;;;;;;23.53;55.27;100213.56;4990897;28;20460;-75
2023/08/02 02:39:15;;;;;;;7.70;6.03;;;;;;;23.41;55.67;100226.56;5007083;28;20736;-75
2023/08/02 02:41:40;;;;;;;9.25;7.75;;;;;;;23.37;55.72;100230.84;4989722;28;20396;-75
2023/08/02 02:44:06;;;;;;;10.70;8.67;;;;;;;23.27;56.33;100234.38;5001557;28;20386;-75
2023/08/02 02:46:31;;;;;;;12.50;9.90;;;;;;;23.26;56.22;100225.44;4991197;28;21011;-75
2023/08/02 02:48:57;;;;;;;12.85;8.88;;;;;;;23.28;56.09;100223.28;5003325;28;20924;-75
2023/08/02 02:51:22;;;;;;;10.80;9.17;;;;;;;23.29;56.25;100218.69;5010716;28;20396;-75
2023/08/02 02:53:48;;;;;;;13.53;10.83;;;;;;;23.32;56.10;100226.25;5010112;28;20388;-75
2023/08/02 02:56:13;;;;;;;14.90;11.30;;;;;;;23.36;56.14;100223.84;5010469;28;21104;-75
2023/08/02 02:58:39;;;;;;;17.33;12.90;;;;;;;23.36;56.04;100230.06;5010420;28;20395;-75
2023/08/02 03:01:04;;;;;;;15.10;11.20;;;;;;;23.28;56.13;100233.25;4997113;28;20401;-75
2023/08/02 03:03:30;;;;;;;10.27;8.80;;;;;;;23.23;56.30;100242.19;4992853;28;20404;-75
2023/08/02 03:05:55;;;;;;;11.57;9.47;;;;;;;23.22;56.30;100239.75;5006250;28;20402;-75
2023/08/02 03:08:21;;;;;;;14.97;10.20;;;;;;;23.26;56.16;100238.97;4991066;28;20524;-75
2023/08/02 03:10:46;;;;;;;13.87;9.97;;;;;;;23.25;56.04;100242.72;4991060;28;20394;-76
2023/08/02 03:13:12;;;;;;;12.90;9.50;;;;;;;23.22;56.41;100242.44;5005016;28;20402;-75
2023/08/02 03:15:37;;;;;;;9.45;7.15;;;;;;;23.26;56.23;100244.38;5009884;28;20482;-75
2023/08/02 03:18:03;;;;;;;8.30;5.60;;;;;;;23.10;56.54;100248.09;5010446;28;20391;-76
2023/08/02 03:20:28;;;;;;;6.80;5.33;;;;;;;22.98;56.76;100248.28;5002154;28;20416;-76
2023/08/02 03:22:54;;;;;;;6.70;5.15;;;;;;;23.01;56.88;100252.34;4991162;28;20861;-75
2023/08/02 03:25:19;;;;;;;8.20;5.43;;;;;;;22.90;56.69;100243.38;5005981;28;20392;-76
2023/08/02 03:27:45;;;;;;;6.53;4.70;;;;;;;22.93;57.00;100250.97;5010484;28;20380;-75
2023/08/02 03:30:10;;;;;;;8.32;6.50;;;;;;;23.06;56.68;100249.69;5012317;28;20419;-75
2023/08/02 03:32:36;;;;;;;6.73;5.47;;;;;;;23.18;55.95;100247.59;5010566;28;20474;-75
2023/08/02 03:35:01;;;;;;;8.97;5.87;;;;;;;23.26;55.47;100247.09;4998376;28;20408;-75
2023/08/02 03:37:27;;;;;;;7.10;5.40;;;;;;;23.33;55.51;100248.72;5006981;28;20384;-75
2023/08/02 03:39:52;;;;;;;8.27;5.30;;;;;;;23.42;55.37;100256.03;4994597;28;20686;-76
2023/08/02 03:42:18;;;;;;;5.40;4.90;;;;;;;23.44;55.19;100258.47;4998408;28;20376;-76
2023/08/02 03:44:43;;;;;;;5.68;4.80;;;;;;;23.46;55.11;100261.72;4999536;28;20403;-75
2023/08/02 03:47:09;;;;;;;9.93;4.70;;;;;;;23.41;55.00;100272.53;5003653;28;20395;-75
2023/08/02 03:49:36;;;;;;;5.67;4.60;;;;;;;23.28;55.51;100271.97;5014719;28;20411;-76
2023/08/02 03:52:02;;;;;;;6.68;4.70;;;;;;;23.22;55.70;100270.28;5009807;28;20770;-76
2023/08/02 03:54:28;;;;;;;5.85;4.80;;;;;;;23.28;55.54;100290.06;5003840;28;20475;-75
2023/08/02 03:56:53;;;;;;;6.57;4.90;;;;;;;23.28;55.41;100293.59;5004494;28;20480;-76
2023/08/02 03:59:19;;;;;;;7.00;5.27;;;;;;;23.26;55.49;100298.47;5003535;28;20401;-76
2023/08/02 04:01:44;;;;;;;7.03;5.43;;;;;;;23.28;55.73;100300.88;5014519;28;20887;-75
2023/08/02 04:04:10;;;;;;;8.93;5.50;;;;;;;23.36;55.33;100297.66;5022358;28;20450;-74
2023/08/02 04:06:35;;;;;;;5.53;4.73;;;;;;;23.46;54.99;100299.59;5024493;28;20405;-74
2023/08/02 04:09:01;;;;;;;7.60;4.32;;;;;;;23.46;54.89;100296.88;5026047;28;20797;-75
2023/08/02 04:11:26;;;;;;;5.83;4.70;;;;;;;23.47;54.63;100298.50;5032951;28;20446;-76
2023/08/02 04:13:52;;;;;;;5.53;4.80;;;;;;;23.55;54.83;100291.75;5033141;28;20879;-75
2023/08/02 04:16:17;;;;;;;5.38;4.78;;;;;;;23.56;54.63;100290.69;5032955;28;20385;-75
2023/08/02 04:18:43;;;;;;;5.90;5.30;;;;;;;23.55;54.92;100294.47;5033438;28;20584;-75
2023/08/02 04:21:08;;;;;;;6.87;5.20;;;;;;;23.57;54.56;100295.84;5032861;28;20452;-75
2023/08/02 04:23:33;;;;;;;5.57;4.82;;;;;;;23.60;54.71;100289.88;5033659;28;20370;-75
2023/08/02 04:25:59;;;;;;;5.97;4.87;;;;;;;23.58;54.55;100294.75;5023137;28;20391;-75
2023/08/02 04:28:24;;;;;;;7.30;4.93;;;;;;;23.54;54.65;100288.25;5024334;28;20383;-75
2023/08/02 04:30:51;;;;;;;6.27;5.00;;;;;;;23.54;54.74;100295.56;5021142;28;21019;-76
2023/08/02 04:33:17;;;;;;;8.32;5.28;;;;;;;23.54;54.75;100301.78;5021283;28;20378;-75
2023/08/02 04:35:42;;;;;;;5.83;4.60;;;;;;;23.55;54.53;100298.00;5022615;28;20387;-76
2023/08/02 04:38:08;;;;;;;7.40;4.43;;;;;;;23.59;54.31;100306.41;5019727;28;20754;-76
2023/08/02 04:40:37;;;;;;;8.20;4.50;;;;;;;23.60;54.20;100308.03;5023024;28;20388;-76
2023/08/02 04:43:03;;;;;;;5.88;4.35;;;;;;;23.70;54.09;100310.75;5020642;28;20390;-76
2023/08/02 04:45:29;;;;;;;5.80;4.50;;;;;;;23.65;54.14;100306.13;5015354;28;20745;-76
2023/08/02 04:47:54;;;;;;;7.18;4.40;;;;;;;23.69;54.01;100298.28;5010775;28;20883;-76
2023/08/02 04:50:20;;;;;;;4.50;4.00;;;;;;;23.66;53.94;100307.78;5012734;28;20403;-77
2023/08/02 04:52:45;;;;;;;4.80;4.00;;;;;;;23.74;54.08;100311.03;5013314;28;20408;-76
2023/08/02 04:55:11;;;;;;;7.18;4.38;;;;;;;23.90;53.83;100309.19;5013283;28;20857;-75
2023/08/02 04:57:36;;;;;;;6.00;4.90;;;;;;;23.89;53.68;100305.66;5012541;28;20385;-76
2023/08/02 05:00:02;;;;;;;4.87;4.23;;;;;;;24.03;53.51;100304.06;5013248;28;20431;-76
2023/08/02 05:02:33;;;;;;;5.30;4.28;;;;;;;24.00;53.82;100301.91;5013886;28;20408;-75
2023/08/02 05:05:00;;;;;;;7.35;4.82;;;;;;;24.05;53.57;100312.72;5014006;28;20867;-76
2023/08/02 05:07:25;;;;;;;7.05;4.88;;;;;;;24.06;53.65;100316.25;5012444;28;20388;-75
2023/08/02 05:09:51;;;;;;;6.00;4.40;;;;;;;24.09;53.54;100309.47;5013493;28;20403;-77
2023/08/02 05:12:16;;;;;;;6.40;5.20;;;;;;;24.04;53.50;100302.19;5013318;28;20415;-76
2023/08/02 05:14:42;;;;;;;5.63;4.73;;;;;;;24.13;53.48;100324.09;5013992;28;20407;-75
2023/08/02 05:17:07;;;;;;;6.18;4.65;;;;;;;24.11;53.54;100328.97;5013350;28;20396;-75
2023/08/02 05:19:33;;;;;;;5.53;4.70;;;;;;;24.10;53.56;100330.06;5012525;28;20399;-76
2023/08/02 05:21:59;;;;;;;5.80;5.07;;;;;;;24.21;53.48;100320.84;5012782;28;20391;-74
2023/08/02 05:24:24;;;;;;;6.73;4.50;;;;;;;24.24;53.23;100334.66;5012966;28;20388;-76
2023/08/02 05:26:50;;;;;;;10.07;4.72;;;;;;;24.17;53.41;100327.91;5013442;28;20368;-75
2023/08/02 05:29:15;;;;;;;5.77;5.00;;;;;;;24.25;53.21;100330.06;5013458;28;20437;-75
2023/08/02 05:31:41;;;;;;;5.97;5.33;;;;;;;24.42;52.99;100332.50;5011830;28;20420;-76
2023/08/02 05:34:06;;;;;;;7.07;5.47;;;;;;;24.56;52.69;100324.66;5009935;28;20870;-76
2023/08/02 05:36:32;;;;;;;7.50;5.18;;;;;;;24.65;52.44;100324.91;5013187;28;20725;-76
2023/08/02 05:38:57;;;;;;;6.27;5.37;;;;;;;24.69;52.47;100340.38;5014231;28;20940;-74
2023/08/02 05:41:23;;;;;;;6.57;5.30;;;;;;;24.79;52.22;100343.06;5012400;28;20384;-75
2023/08/02 05:43:48;;;;;;;5.72;5.05;;;;;;;24.93;52.16;100339.78;5011195;28;20479;-75
2023/08/02 05:46:14;;;;;;;7.50;4.97;;;;;;;25.10;51.86;100348.41;5012405;28;20392;-75
2023/08/02 05:48:39;;;;;;;8.10;5.10;;;;;;;25.28;51.41;100351.63;5011498;28;20392;-75
2023/08/02 05:51:05;;;;;;;9.97;5.00;;;;;;;25.23;51.60;100357.88;5011156;28;20400;-74
2023/08/02 05:53:30;;;;;;;7.10;4.95;;;;;;;25.35;51.30;100365.72;5011708;28;20388;-75
2023/08/02 05:55:57;;;;;;;10.03;5.60;;;;;;;25.49;51.05;100369.44;5013392;28;20392;-75
2023/08/02 05:58:24;;;;;;;7.18;4.97;;;;;;;25.68;50.57;100379.69;5012665;28;20420;-75
2023/08/02 06:00:50;;;;;;;8.10;5.55;;;;;;;25.87;50.17;100360.84;5018261;28;20901;-74
2023/08/02 06:03:15;;;;;;;7.47;5.10;;;;;;;25.96;50.14;100371.97;5025019;28;20418;-75
2023/08/02 06:05:41;;;;;;;7.80;4.67;;;;;;;25.89;49.97;100380.38;5013960;28;20478;-75
2023/08/02 06:08:06;;;;;;;8.17;4.80;;;;;;;25.75;49.92;100374.78;5010300;28;20384;-76
2023/08/02 06:10:31;;;;;;;5.60;3.97;;;;;;;25.66;49.85;100362.84;5010472;28;20396;-73
2023/08/02 06:12:57;;;;;;;8.03;4.33;;;;;;;25.94;48.86;100364.88;5010541;28;20412;-73
2023/08/02 06:15:23;;;;;;;6.00;4.10;;;;;;;26.07;48.78;100374.34;5010245;28;20931;-74
2023/08/02 06:17:48;;;;;;;6.50;4.53;;;;;;;26.01;48.81;100378.16;5009250;28;20426;-73
2023/08/02 06:20:14;;;;;;;7.33;5.13;;;;;;;26.40;48.05;100371.09;5009041;28;20464;-74
2023/08/02 06:22:40;;;;;;;9.37;5.13;;;;;;;26.53;47.45;100365.00;5010313;28;20478;-73
2023/08/02 06:25:06;;;;;;;8.05;5.40;;;;;;;26.53;47.15;100375.88;5009908;28;20400;-73
2023/08/02 06:27:31;;;;;;;7.28;4.68;;;;;;;26.66;47.28;100382.59;5010380;28;20396;-73
2023/08/02 06:29:57;;;;;;;6.57;4.50;;;;;;;26.94;47.06;100382.84;5010017;28;20420;-73
2023/08/02 06:32:22;;;;;;;7.03;4.20;;;;;;;27.26;46.19;100368.63;5009956;28;20422;-73
2023/08/02 06:34:48;;;;;;;5.97;3.28;;;;;;;27.01;45.66;100376.00;5009928;28;20517;-73
2023/08/02 06:37:13;;;;;;;6.45;3.67;;;;;;;27.12;45.28;100364.97;5010436;28;20396;-73
2023/08/02 06:39:39;;;;;;;4.67;3.27;;;;;;;26.83;45.62;100379.44;5011528;28;20388;-74
2023/08/02 06:42:05;;;;;;;4.07;3.60;;;;;;;26.93;46.36;100371.19;5009147;28;20391;-74
2023/08/02 06:44:31;;;;;;;5.53;4.05;;;;;;;27.20;45.67;100361.63;5009126;28;20738;-74
2023/08/02 06:46:56;;;;;;;6.60;3.70;;;;;;;27.37;45.03;100380.22;5010229;28;20921;-74
2023/08/02 06:49:22;;;;;;;4.63;3.40;;;;;;;27.37;45.12;100381.06;5017563;28;20396;-74
2023/08/02 06:51:47;;;;;;;6.00;3.97;;;;;;;27.57;44.97;100376.47;5013193;28;20519;-73
2023/08/02 06:54:13;;;;;;;5.87;3.70;;;;;;;27.80;44.77;100386.50;5011543;28;20899;-74
2023/08/02 06:56:38;;;;;;;7.40;3.70;;;;;;;27.94;44.23;100389.31;5012128;28;20408;-73
2023/08/02 06:59:04;;;;;;;5.68;4.07;;;;;;;28.03;44.28;100379.38;5010025;28;20739;-73
2023/08/02 07:01:29;;;;;;;5.50;3.73;;;;;;;27.84;44.31;100394.91;5009213;28;20837;-74
2023/08/02 07:03:54;;;;;;;6.63;3.53;;;;;;;27.50;44.65;100400.53;5010001;28;20404;-73
2023/08/02 07:06:20;;;;;;;6.60;3.97;;;;;;;27.69;45.12;100404.06;4996450;28;20422;-72
2023/08/02 07:08:48;;;;;;;5.93;3.88;;;;;;;27.60;45.45;100398.47;4998372;28;20415;-73
2023/08/02 07:11:13;;;;;;;7.30;3.90;;;;;;;27.16;46.14;100399.50;4996457;28;20447;-73
2023/08/02 07:13:43;;;;;;;7.07;4.27;;;;;;;27.12;46.33;100417.50;4997233;28;20437;-73
2023/08/02 07:16:09;;;;;;;4.50;3.70;;;;;;;27.07;46.57;100410.19;4996538;28;21773;-72
2023/08/02 07:18:34;;;;;;;8.70;4.20;;;;;;;27.20;46.72;100403.25;5000286;28;20408;-75
2023/08/02 07:21:08;;;;;;;6.03;3.90;;;;;;;27.18;46.55;100394.56;5009000;28;20423;-73
2023/08/02 07:23:34;;;;;;;4.65;4.18;;;;;;;27.02;46.83;100404.00;5008049;28;20808;-74
2023/08/02 07:26:00;;;;;;;7.50;4.13;;;;;;;27.02;46.88;100391.19;5008412;28;20435;-73
2023/08/02 07:28:26;;;;;;;7.67;4.10;;;;;;;27.00;47.33;100404.28;5012570;28;20426;-72
2023/08/02 07:30:51;;;;;;;6.47;4.27;;;;;;;27.13;47.34;100402.78;5012609;28;20479;-73
2023/08/02 07:33:16;;;;;;;5.03;4.53;;;;;;;27.17;47.19;100403.84;5012661;28;20390;-74
2023/08/02 07:35:42;;;;;;;4.87;4.33;;;;;;;27.14;47.19;100404.44;5018071;28;20881;-73
2023/08/02 07:38:07;;;;;;;5.60;4.30;;;;;;;27.27;47.20;100406.47;5032883;28;20440;-73
2023/08/02 07:40:33;;;;;;;6.13;4.70;;;;;;;27.25;47.10;100408.66;5024280;28;20410;-75
2023/08/02 07:42:59;;;;;;;7.07;5.20;;;;;;;27.44;47.11;100425.09;5015420;28;20466;-75
2023/08/02 07:45:24;;;;;;;7.18;5.18;;;;;;;27.72;45.91;100428.00;5029034;28;20449;-74
2023/08/02 07:47:50;;;;;;;6.97;5.90;;;;;;;27.75;45.56;100429.31;5033822;28;20389;-75
2023/08/02 07:50:15;;;;;;;8.47;5.90;;;;;;;27.71;45.32;100429.09;5035470;28;20937;-75
2023/08/02 07:52:44;;;;;;;9.00;6.33;;;;;;;27.34;46.59;100435.28;5034792;28;20862;-75
2023/08/02 07:55:10;;;;;;;7.90;7.10;;;;;;;27.44;46.51;100427.81;5029766;28;21038;-76
2023/08/02 07:57:35;;;;;;;8.48;7.70;;;;;;;27.66;46.05;100418.28;5016038;28;20569;-75
2023/08/02 08:00:01;;;;;;;7.23;6.60;;;;;;;27.67;45.60;100427.25;5014350;28;20880;-75
2023/08/02 08:02:27;;;;;;;7.78;6.97;;;;;;;27.62;45.90;100431.66;5018376;28;20463;-76
2023/08/02 08:04:54;;;;;;;8.75;7.47;;;;;;;27.90;45.75;100426.44;5014146;28;20395;-74
2023/08/02 08:07:20;;;;;;;8.73;7.50;;;;;;;28.07;45.29;100422.38;5013550;28;20784;-76
2023/08/02 08:09:46;;;;;;;7.47;6.72;;;;;;;27.95;45.31;100420.91;5013486;28;20805;-75
2023/08/02 08:12:11;;;;;;;9.18;7.15;;;;;;;28.21;45.24;100428.72;5012828;28;20477;-75
2023/08/02 08:14:37;;;;;;;11.30;7.00;;;;;;;28.75;44.41;100429.25;5013471;28;20395;-74
2023/08/02 08:17:03;;;;;;;9.03;6.80;;;;;;;29.12;43.29;100433.78;5013503;28;20387;-75
2023/08/02 08:19:30;;;;;;;8.60;6.78;;;;;;;28.87;43.32;100434.25;5013821;28;20384;-75
2023/08/02 08:21:56;;;;;;;9.93;7.70;;;;;;;28.86;43.26;100443.53;5013906;28;20447;-75
2023/08/02 08:24:21;;;;;;;9.07;7.60;;;;;;;28.65;43.39;100446.63;5013688;28;20472;-74
2023/08/02 08:26:47;;;;;;;8.70;7.80;;;;;;;28.81;43.37;100452.63;5013599;28;20380;-76
2023/08/02 08:29:12;;;;;;;9.65;7.45;;;;;;;28.72;43.21;100457.94;5013352;28;20408;-74
2023/08/02 08:31:38;;;;;;;7.90;7.20;;;;;;;28.62;43.43;100460.84;5012228;28;20433;-74
2023/08/02 08:34:04;;;;;;;8.40;7.37;;;;;;;28.16;43.66;100459.59;5013381;28;20388;-75
2023/08/02 08:36:30;;;;;;;7.45;6.20;;;;;;;27.73;44.33;100456.03;5013628;28;20396;-74
2023/08/02 08:38:58;;;;;;;7.72;6.93;;;;;;;28.00;44.08;100466.34;5013280;28;20407;-75
2023/08/02 08:41:24;;;;;;;9.20;6.68;;;;;;;27.47;44.45;100469.97;5013963;28;20403;-75
2023/08/02 08:43:49;;;;;;;8.30;6.75;;;;;;;27.40;44.27;100472.22;5032072;28;20445;-75
2023/08/02 08:46:15;;;;;;;9.00;7.03;;;;;;;27.53;44.40;100470.72;5028588;28;20414;-76
2023/08/02 08:48:42;;;;;;;6.95;6.07;;;;;;;27.40;44.48;100478.47;5013351;28;20384;-75
2023/08/02 08:51:13;;;;;;;9.55;6.72;;;;;;;27.33;44.00;100477.19;5012888;28;20408;-76
2023/08/02 08:53:43;;;;;;;7.25;6.35;;;;;;;27.14;43.88;100480.63;5012982;28;20430;-75
2023/08/02 08:56:08;;;;;;;8.80;7.43;;;;;;;27.33;44.03;100479.91;5013105;28;20392;-75
2023/08/02 08:58:36;;;;;;;8.17;6.63;;;;;;;27.36;43.28;100480.16;5013248;28;20404;-74
2023/08/02 09:01:05;;;;;;;8.38;6.82;;;;;;;27.47;43.06;100489.00;5014564;28;20450;-74
2023/08/02 09:03:33;;;;;;;10.95;6.85;;;;;;;27.31;43.27;100488.34;5012850;28;20382;-75
2023/08/02 09:06:03;;;;;;;8.02;6.20;;;;;;;26.99;43.95;100486.19;5012936;28;20404;-74
2023/08/02 09:08:41;;;;;;;7.90;7.05;;;;;;;27.16;43.84;100491.22;5013074;28;20396;-74
2023/08/02 09:11:06;;;;;;;7.63;5.63;;;;;;;26.97;43.71;100501.97;5011942;28;20411;-75
2023/08/02 09:13:32;;;;;;;11.73;6.95;;;;;;;27.27;43.54;100509.09;5011107;28;20384;-75
2023/08/02 09:16:09;;;;;;;9.10;6.60;;;;;;;27.15;43.65;100514.06;5010834;28;20459;-75
2023/08/02 09:18:36;;;;;;;7.70;6.80;;;;;;;27.51;43.13;100517.28;5009781;28;20410;-75
2023/08/02 09:21:03;;;;;;;7.03;6.32;;;;;;;27.59;43.33;100530.28;5011237;28;20392;-75
2023/08/02 09:23:28;;;;;;;9.07;6.20;;;;;;;27.34;43.73;100522.38;5011296;28;20402;-76
2023/08/02 09:26:09;;;;;;;8.57;6.30;;;;;;;27.40;43.58;100521.22;5010813;28;20467;-75
2023/08/02 09:28:34;;;;;;;8.83;6.60;;;;;;;27.34;43.87;100525.91;5010802;28;20384;-76
2023/08/02 09:31:13;;;;;;;7.50;5.53;;;;;;;27.15;43.87;100533.91;5010825;28;20466;-74
2023/08/02 09:33:50;;;;;;;8.07;6.73;;;;;;;27.35;44.19;100515.81;5011580;28;20396;-74
2023/08/02 09:36:28;;;;;;;7.70;6.78;;;;;;;27.97;43.12;100511.34;5010681;28;20384;-75
2023/08/02 09:39:01;;;;;;;8.55;5.97;;;;;;;27.82;42.83;100511.47;5007356;28;20884;-76
2023/08/02 09:41:27;;;;;;;8.30;4.60;;;;;;;27.50;43.31;100515.66;5007508;28;20388;-76
2023/08/02 09:43:53;;;;;;;6.80;5.10;;;;;;;27.29;43.88;100515.06;5010103;28;20506;-76
2023/08/02 09:46:30;;;;;;;7.20;5.40;;;;;;;27.62;43.34;100523.41;5022472;28;20380;-75
2023/08/02 09:48:59;;;;;;;6.93;5.05;;;;;;;27.76;42.73;100529.78;5026226;28;20388;-75
2023/08/02 09:51:39;;;;;;;5.82;4.80;;;;;;;27.85;41.73;100506.25;5011256;28;20427;-76
2023/08/02 09:54:05;;;;;;;5.70;5.10;;;;;;;27.84;42.00;100526.44;5011608;28;20579;-76
2023/08/02 09:56:33;;;;;;;6.87;4.87;;;;;;;27.95;42.16;100529.09;5012320;28;20388;-76
2023/08/02 09:58:59;;;;;;;6.05;5.40;;;;;;;27.85;42.94;100529.97;5011567;28;20392;-74
2023/08/02 10:01:25;;;;;;;6.57;5.45;;;;;;;27.99;42.14;100533.66;5013141;28;20388;-76
2023/08/02 10:03:58;;;;;;;7.03;4.80;;;;;;;28.01;42.14;100536.88;5012737;28;20388;-74
2023/08/02 10:06:34;;;;;;;5.45;4.95;;;;;;;27.99;41.99;100549.19;5013034;28;20380;-76
2023/08/02 10:09:04;;;;;;;5.10;4.63;;;;;;;27.57;43.17;100551.53;5012719;28;20376;-76
2023/08/02 10:11:33;;;;;;;5.30;4.80;;;;;;;27.31;43.75;100548.22;5012431;28;20467;-76
2023/08/02 10:14:01;;;;;;;5.38;4.55;;;;;;;27.20;44.14;100555.66;5012032;28;20431;-75
2023/08/02 10:16:27;;;;;;;6.13;4.95;;;;;;;27.06;44.16;100546.50;5011594;28;20384;-74
2023/08/02 10:18:53;;;;;;;6.72;5.53;;;;;;;27.22;44.26;100555.38;5011731;28;20450;-74
2023/08/02 10:21:21;;;;;;;6.95;5.60;;;;;;;27.40;43.94;100545.72;5009038;28;20405;-75
2023/08/02 10:23:49;;;;;;;6.13;5.53;;;;;;;27.33;44.09;100550.66;5009295;28;20471;-74
2023/08/02 10:26:15;;;;;;;6.78;5.90;;;;;;;27.40;44.09;100546.50;5010950;28;20474;-77
2023/08/02 10:28:42;;;;;;;6.07;4.60;;;;;;;27.11;44.57;100554.63;5010289;28;20489;-76
2023/08/02 10:31:09;;;;;;;6.40;5.80;;;;;;;27.07;44.89;100553.59;5005677;28;20388;-76
2023/08/02 10:33:35;;;;;;;7.38;5.93;;;;;;;27.33;44.11;100534.34;5007842;28;20396;-75
2023/08/02 10:36:02;;;;;;;8.60;6.13;;;;;;;27.04;44.61;100546.78;5008930;28;20457;-76
2023/08/02 10:38:46;;;;;;;6.72;6.13;;;;;;;27.44;44.33;100544.03;4998799;28;20405;-75
2023/08/02 10:41:12;;;;;;;9.07;6.38;;;;;;;27.61;44.08;100535.44;4999133;28;20399;-76
2023/08/02 10:43:53;;;;;;;3.78;3.08;;;;;;;27.31;41.59;100545.50;4996802;28;20403;-75
2023/08/02 10:46:20;;;;;;;4.22;2.78;;;;;;;26.99;42.84;100554.19;5000627;28;21381;-74
2023/08/02 10:48:45;;;;;;;5.50;4.20;;;;;;;27.17;43.46;100542.63;4996915;28;20422;-75
2023/08/02 10:51:31;;;;;;;4.55;3.95;;;;;;;26.91;43.66;100547.44;4992490;28;20410;-74
2023/08/02 10:54:21;;;;;;;5.93;4.25;;;;;;;27.01;43.77;100536.50;4989176;28;20471;-75
2023/08/02 10:56:56;;;;;;;5.57;4.40;;;;;;;27.07;43.40;100553.59;4988593;28;20393;-78
2023/08/02 10:59:24;;;;;;;7.85;4.72;;;;;;;26.97;43.90;100546.31;4989753;28;20716;-76
2023/08/02 11:01:59;;;;;;;5.40;4.50;;;;;;;27.23;43.58;100548.84;4991864;28;20448;-75
2023/08/02 11:04:26;;;;;;;5.18;3.70;;;;;;;27.35;43.16;100538.41;4992087;28;20779;-76
2023/08/02 11:06:52;;;;;;;4.10;3.70;;;;;;;27.29;43.35;100545.00;4992269;28;20382;-75
2023/08/02 11:09:18;;;;;;;5.03;4.18;;;;;;;27.50;43.19;100520.31;4993207;28;20962;-75
2023/08/02 11:11:43;;;;;;;4.15;3.75;;;;;;;28.07;42.03;100515.84;4992310;28;20837;-76
2023/08/02 11:14:09;;;;;;;4.27;3.53;;;;;;;28.31;41.37;100532.16;4992480;28;20418;-78
2023/08/02 11:16:39;;;;;;;4.18;3.13;;;;;;;28.11;41.26;100524.22;4993306;28;20390;-78
2023/08/02 11:19:09;;;;;;;4.03;3.63;;;;;;;28.12;41.62;100515.78;4992402;28;20493;-74
2023/08/02 11:21:35;;;;;;;5.53;3.87;;;;;;;28.12;41.48;100518.50;5007903;28;20584;-75